Hlavní strana
METAR-TAF:

METAR-TAF

Letiště :

Catacamas, Honduras

zeměpisná šířka: 14-54N, zeměpisná délka: 085-56W, výška: 442 m

Aktuální stav počasí

Zpráva byla vytvořena před 22 minutami, v 14:00 UTC
Východoseverovýchodní vítr 2 kt
Teplota 27°C
Vlhkost vzduchu 84%
Tlak 1017 hPa
Viditelnost 10 km a více
Skoro jasno ve výšce 1200 ft
Polojasno ve výšce 2800 ft
zákal

METAR: MHCA 201400Z 07002KT 9999 FEW012 SCT028 27/24 Q1017 HZ

Čas: 08:22 (14:22 UTC)


TAF: chybějící

Stav a předpovědi počasí z více než 4 000 letišť (zprávy METAR a TAF).

Červené a žluté tečky na mapě představují dostupné meteorologické stanice.

Když kurzor umístíte na tečku, zobrazí se název stanice.

Pak kliknutím zobrazíte stav a předpověď počasí.

Chcete-li změnit mapu, kliknutím na zelené tlačítko se znaménkem +mapu přiblížíte, kliknutím na zelené tlačítko se znaménkem – mapu oddálíte a kliknutím na zelené šipky přejdete na sousední mapy.


METAR-TAF: